Marriot Freedom Race
Skip Navigation Links
Results
Details
Saturday, April 1, 2017
HyperLink
Page 1 of 2 (61 items)
[1]2
Pos
Race No
Fav
Share
Print
Video
Name
Time
Category
Cat Pos
Gender
Gen Pos
Finish
11TEAM TIB Insurance02:05:14OverAll1Male102:05:14
254TEAM Ballito Bicycle Company02:08:45OverAll2Male202:08:45
389TEAM PM Power Training02:11:52OverAll3Male302:11:52
4135TEAM PM Power Vo202:20:23OverAll4Male402:20:23
5115TEAM JADAC PESCHLSPORTS02:20:36OverAll5Male502:20:36
6121TEAM X02:20:40OverAll6Male602:20:40
764TEAM Cadence Hillcrest02:29:39OverAll7Male702:29:39
866TEAM Concept Cyclery / Bell02:34:59OverAll1Mixed102:34:59
977TEAM Jowetts racing02:36:48OverAll2Mixed202:36:48
1091TEAM PM Powertraining Vets02:37:03OverAll8Male802:37:03
11127TEAM BC Asset Management02:37:27OverAll9Male902:37:27
1281TEAM Last minuite02:57:05out of cat1Male1002:57:05
1335TEAM The Valley Mutts02:57:09OverAll1Female102:57:09
14138TEAM Saddle Tramps02:58:22OverAll2Female202:58:22
1562TEAM CADENCE GIRLS02:59:02OverAll3Female302:59:02
1687TEAM PM Power gals03:00:35OverAll4Female403:00:35
1724TEAM Hill Ballies03:07:09OverAll10Male1103:07:09
1852TEAM New-Valley MTB Club #203:08:08OverAll11Male1203:08:08
19113TEAM One More Watt03:09:37OverAll12Male1303:09:37
2079TEAM Knobby & Bitch03:12:02OverAll13Male1403:12:02
21109TEAM Tiny & Witblitz03:15:06OverAll14Male1503:15:06
229Team Langford Legends03:15:57OverAll15Male1603:15:57
23103TEAM Team Tand T03:17:20OverAll5Female503:17:20
2413TEAM Tortoise & Hare03:22:15OverAll16Male1703:22:15
2518TEAM Specsavers Racing03:24:20OverAll17Male1803:24:20
26131TEAM DKR03:26:08OverAll18Male1903:26:08
2795TEAM Silver Shadows03:28:55OverAll19Male2003:28:55
28129TEAM Boundary03:29:17OverAll20Male2103:29:17
2932TEAM Give us a Tow03:30:40OverAll21Male2203:30:40
30101TEAM Team Love to Ride03:32:56OverAll3Mixed303:32:56
31118TEAM Nathash03:33:11OverAll22Male2303:33:11
3243TEAM SAPS 503:34:22OverAll4Mixed403:34:22
33125TEAM Lekka Fire Cracker03:45:04OverAll23Male2403:45:04
34133TEAM M&M03:45:29OverAll5Mixed503:45:29
3568TEAM Concept Cyclery Peanut Butter and Jelly03:50:25OverAll6Mixed603:50:25
3685TEAM MTB Mullets03:51:17OverAll24Male2503:51:17
37107TEAM The fire breathing rubber duckies03:56:53OverAll25Male2603:56:53
3870TEAM Eminem03:58:55OverAll7Mixed703:58:55
3948TEAM SAPS 103:59:40OverAll26Male2703:59:40
4093TEAM Reach Out04:01:47OverAll27Male2804:01:47
4150TEAM New-Valley MTB Club04:03:26OverAll28Male2904:03:26
4297TEAM TEAM BOSHOFF04:03:51OverAll8Mixed804:03:51
4341TEAM SAPS 304:10:30OverAll29Male3004:10:30
4475TEAM JD&Izette04:10:34OverAll9Mixed904:10:34
4516TEAM Team I Forgot04:15:56OverAll30Male3104:15:56
4683TEAM MC COFFEE04:18:14OverAll10Mixed1004:18:14
4745TEAM SAPS 204:23:55OverAll31Male3204:23:55
48105TEAM TEAM TOOLS04:23:58out of cat2Male3304:23:58
4911TEAM Tubeless04:30:56OverAll32Male3404:30:56
504TEAM Who Knowsy04:33:08out of cat1Mixed1104:33:08
Page 1 of 2 (61 items)
[1]2
fb

HyperLink Copyright (c) G Vincent, 2017